Elkmont, AL (35620)

11:14 PM CDT on September 21, 2014 (GMT -0500)
Toone Rd. | Change Station
CLOSE
Current Station
Personal Weather Station
Location: Elkmont, AL
Elevation: 930 ft
Nearby Weather Stations

Elev 930 ft 34.97 °N, 86.90 °W | Updated 2 minutes ago

Clear
Clear
69.8 °F
Feels Like 69.8 °F
N
2.0
Wind Variable Wind from East
Gusts 2.0 mph

Today
High -- | Low -- °F
--% Chance of Precip.
Yesterday
High -- | Low -- °F
Precip. -- in
6:35 AM 6:46 PM
Waning Crescent, 4% visible
Pressure 30.02 in
Visibility 10.0 miles
Clouds Clear
Dew Point 52 °F
Humidity 53%
Rainfall 0.00 in
Snow Depth Not available.
UV 0 out of 12
Pollen 7.50 out of 12
Air Quality Not available.
Flu Activity Not available.
METAR KDCU 220353Z AUTO 36011KT 10SM CLR 23/16 A3004 RMK AO2 SLP164 T02280156 $

More Conditions Fewer Conditions

Pressure 30.02 in
Visibility 10.0 miles
Clouds Clear
Dew Point 52 °F
Humidity 53%
Rainfall 0.00 in
Snow Depth Not available.
UV 0 out of 12
Pollen 7.50 out of 12
Air Quality Not available.
Flu Activity Not available.
METAR KDCU 220353Z AUTO 36011KT 10SM CLR 23/16 A3004 RMK AO2 SLP164 T02280156 $

More Conditions Fewer Conditions

10-Day Weather Forecast

Almanac

Astronomy

Sep. 21, 2014 Rise Set
Actual Time 6:35 AM CDT 6:46 PM CDT
Civil Twilight 6:10 AM CDT 7:11 PM CDT
Nautical Twilight 5:40 AM CDT 7:40 PM CDT
Astronomical Twilight 5:10 AM CDT 8:10 PM CDT
Moon 4:13 AM CDT (9/21) 5:18 PM CDT (9/21)
Length of Visible Light 13h 01m
Length of Day
12h 10m
Tomorrow will be 2m 10s shorter.
Waning Crescent, 4% of the Moon is Illuminated
Sep 22
Waning Crescent
Sep 24
New
Oct 1
First Quarter
Oct 8
Full
Oct 15
Last Quarter

Today's Extremes

State Highs State Lows

Community

WunderPhotos

Upload Photos

1,755,383 photos uploaded!

Nearby

Snow Depth

Station Depth Elevation
No new snow has been reported.

Earthquake Activity

City Distance Mag. Time & Date
No recent earthquake activity has been reported nearby.
Minimum magnitude displayed is 2.5.

Coastal Water Temperatures

Place Temperature
No Stations Reporting

Nearby Weather Stations